Time;durP1;ratioP1;P1;durP2;ratioP2;P2;SDS_P1;SDS_P2;PMS_P1;PMS_P2;Temp;Humidity;BMP_temperature;BMP_pressure;BME280_temperature;BME280_humidity;BME280_pressure;Samples;Min_cycle;Max_cycle;Signal;HPM_P1;HPM_P2
2021/05/24 00:00:46;;;;;;;3.80;1.98;;;4.00;99.90;;;;;;5079720;28;20416;-80
2021/05/24 00:03:14;;;;;;;1.70;1.58;;;4.00;99.90;;;;;;5078052;28;20049;-80
2021/05/24 00:05:41;;;;;;;2.25;1.60;;;4.10;99.90;;;;;;5078507;28;20073;-81
2021/05/24 00:08:08;;;;;;;7.93;1.60;;;4.10;99.90;;;;;;5078720;28;20476;-80
2021/05/24 00:10:37;;;;;;;1.90;1.80;;;4.20;99.90;;;;;;5078174;28;20088;-82
2021/05/24 00:13:09;;;;;;;1.80;1.70;;;4.30;99.90;;;;;;5078497;28;20101;-80
2021/05/24 00:15:47;;;;;;;3.05;1.50;;;4.20;99.90;;;;;;5076750;28;20087;-81
2021/05/24 00:18:15;;;;;;;3.47;1.40;;;4.20;99.90;;;;;;5076526;28;20532;-81
2021/05/24 00:20:54;;;;;;;1.77;1.55;;;4.20;99.90;;;;;;5076051;28;20087;-82
2021/05/24 00:23:22;;;;;;;2.08;1.63;;;4.10;99.90;;;;;;5077914;28;20456;-81
2021/05/24 00:25:49;;;;;;;3.25;1.55;;;4.00;99.90;;;;;;5078215;28;20080;-81
2021/05/24 00:28:16;;;;;;;2.13;2.03;;;4.00;99.90;;;;;;5077870;28;20531;-82
2021/05/24 00:30:46;;;;;;;4.03;2.13;;;3.90;99.90;;;;;;5077878;28;20558;-81
2021/05/24 00:33:13;;;;;;;2.72;2.00;;;3.80;99.90;;;;;;5075787;28;20071;-82
2021/05/24 00:35:41;;;;;;;3.08;1.85;;;3.90;99.90;;;;;;5076533;28;20045;-81
2021/05/24 00:38:08;;;;;;;2.00;1.90;;;3.90;99.90;;;;;;5078188;28;20049;-80
2021/05/24 00:40:37;;;;;;;1.90;1.80;;;4.00;99.90;;;;;;5076968;28;20080;-80
2021/05/24 00:43:05;;;;;;;1.80;1.70;;;4.00;99.90;;;;;;5078067;28;20056;-82
2021/05/24 00:45:33;;;;;;;4.13;1.73;;;3.90;99.90;;;;;;5076665;28;20071;-82
2021/05/24 00:48:00;;;;;;;6.05;1.80;;;3.90;99.90;;;;;;5078281;28;20050;-82
2021/05/24 00:50:27;;;;;;;3.35;1.80;;;3.90;99.90;;;;;;5077151;28;20462;-80
2021/05/24 00:52:54;;;;;;;3.20;1.92;;;3.90;99.90;;;;;;5078514;28;20489;-82
2021/05/24 00:55:21;;;;;;;2.30;1.98;;;3.90;99.90;;;;;;5078822;28;20076;-82
2021/05/24 00:57:48;;;;;;;3.88;2.05;;;3.80;99.90;;;;;;5076640;28;20075;-81
2021/05/24 01:00:25;;;;;;;2.72;1.90;;;3.90;99.90;;;;;;5077048;28;20099;-82
2021/05/24 01:02:55;;;;;;;6.68;2.03;;;3.90;99.90;;;;;;5077085;28;20070;-82
2021/05/24 01:05:23;;;;;;;2.42;1.77;;;3.90;99.90;;;;;;5077399;28;20044;-82
2021/05/24 01:07:50;;;;;;;2.22;2.03;;;3.80;99.90;;;;;;5077435;28;20080;-82
2021/05/24 01:10:18;;;;;;;2.13;1.95;;;3.80;99.90;;;;;;5078372;28;20048;-81
2021/05/24 01:12:46;;;;;;;2.03;1.92;;;3.90;99.90;;;;;;5077469;28;20060;-82
2021/05/24 01:15:13;;;;;;;4.50;1.85;;;3.90;99.90;;;;;;5078973;28;20127;-81
2021/05/24 01:17:40;;;;;;;2.38;2.17;;;3.80;99.90;;;;;;5079033;28;20516;-81
2021/05/24 01:20:09;;;;;;;2.63;2.30;;;3.70;99.90;;;;;;5075423;28;20123;-81
2021/05/24 01:22:38;;;;;;;2.08;1.98;;;3.70;99.90;;;;;;5073816;28;20729;-81
2021/05/24 01:25:06;;;;;;;3.10;1.90;;;3.70;99.90;;;;;;5074285;28;20092;-80
2021/05/24 01:27:33;;;;;;;2.13;2.00;;;3.70;99.90;;;;;;5075573;28;20048;-81
2021/05/24 01:30:01;;;;;;;2.20;1.90;;;3.70;99.90;;;;;;5076507;28;20447;-81
2021/05/24 01:32:27;;;;;;;2.97;1.75;;;3.70;99.90;;;;;;5080112;28;20084;-82
2021/05/24 01:34:55;;;;;;;2.90;1.90;;;3.70;99.90;;;;;;5079368;28;20040;-82
2021/05/24 01:37:22;;;;;;;2.47;1.75;;;3.70;99.90;;;;;;5079136;28;20105;-82
2021/05/24 01:39:48;;;;;;;1.98;1.75;;;3.70;99.90;;;;;;5079038;28;20087;-82
2021/05/24 01:42:15;;;;;;;2.00;1.90;;;3.70;99.90;;;;;;5079495;28;20084;-82
2021/05/24 01:44:43;;;;;;;2.35;1.70;;;3.70;99.90;;;;;;5079082;28;20083;-82
2021/05/24 01:47:09;;;;;;;2.10;1.88;;;3.80;99.90;;;;;;5079174;28;20110;-82
2021/05/24 01:49:37;;;;;;;2.70;1.95;;;3.70;99.90;;;;;;5078910;28;20119;-81
2021/05/24 01:52:05;;;;;;;3.75;2.05;;;3.70;99.90;;;;;;5080193;28;20087;-82
2021/05/24 01:54:32;;;;;;;2.40;2.13;;;3.70;99.90;;;;;;5080516;28;20175;-82
2021/05/24 01:56:59;;;;;;;1.88;1.77;;;3.70;99.90;;;;;;5080721;28;20053;-82
2021/05/24 01:59:26;;;;;;;3.08;2.10;;;3.70;99.90;;;;;;5075584;28;20048;-81
2021/05/24 02:01:53;;;;;;;2.40;1.92;;;3.70;99.90;;;;;;5077234;28;20102;-80
2021/05/24 02:04:20;;;;;;;3.10;2.00;;;3.70;99.90;;;;;;5079601;28;20041;-81
2021/05/24 02:06:47;;;;;;;1.90;1.80;;;3.70;99.90;;;;;;5079912;28;20513;-81
2021/05/24 02:09:13;;;;;;;2.10;1.90;;;3.70;99.90;;;;;;5077666;28;20052;-81
2021/05/24 02:11:41;;;;;;;3.30;2.08;;;3.70;99.90;;;;;;5077047;28;20489;-81
2021/05/24 02:14:09;;;;;;;2.17;2.08;;;3.70;99.90;;;;;;5076071;28;20105;-81
2021/05/24 02:16:40;;;;;;;4.78;2.38;;;3.60;99.90;;;;;;5076553;28;20471;-81
2021/05/24 02:19:08;;;;;;;2.17;1.77;;;3.60;99.90;;;;;;5077022;28;20080;-82
2021/05/24 02:21:36;;;;;;;4.93;2.67;;;3.60;99.90;;;;;;5075258;28;20131;-81
2021/05/24 02:24:05;;;;;;;2.03;1.92;;;3.60;99.90;;;;;;5076933;28;20084;-81
2021/05/24 02:26:33;;;;;;;1.85;1.75;;;3.60;99.90;;;;;;5077247;28;20040;-80
2021/05/24 02:29:00;;;;;;;2.05;1.95;;;3.60;99.90;;;;;;5074645;28;20072;-81
2021/05/24 02:31:27;;;;;;;3.85;2.03;;;3.60;99.90;;;;;;5075946;28;20048;-81
2021/05/24 02:33:54;;;;;;;4.03;2.05;;;3.50;99.90;;;;;;5073990;28;20078;-81
2021/05/24 02:36:24;;;;;;;1.73;1.63;;;3.50;99.90;;;;;;5074248;28;20048;-81
2021/05/24 02:38:51;;;;;;;5.07;1.90;;;3.50;99.90;;;;;;5075784;28;20048;-82
2021/05/24 02:41:18;;;;;;;2.60;2.40;;;3.50;99.90;;;;;;5076197;28;20420;-81
2021/05/24 02:43:44;;;;;;;4.05;2.10;;;3.40;99.90;;;;;;5073764;28;20057;-81
2021/05/24 02:46:12;;;;;;;2.28;2.10;;;3.40;99.90;;;;;;5074938;28;20044;-81
2021/05/24 02:48:38;;;;;;;1.90;1.80;;;3.50;99.90;;;;;;5075100;28;20049;-79
2021/05/24 02:51:06;;;;;;;1.80;1.70;;;3.40;99.90;;;;;;5074670;28;20113;-80
2021/05/24 02:53:33;;;;;;;2.08;1.90;;;3.30;99.90;;;;;;5073854;28;20127;-81
2021/05/24 02:56:01;;;;;;;2.25;1.70;;;3.40;99.90;;;;;;5072896;28;20045;-80
2021/05/24 02:58:27;;;;;;;2.22;2.03;;;3.40;99.90;;;;;;5073289;28;20048;-81
2021/05/24 03:00:54;;;;;;;9.35;2.65;;;3.40;99.90;;;;;;5075998;28;20064;-81
2021/05/24 03:03:24;;;;;;;2.60;2.35;;;3.40;99.90;;;;;;5076202;28;20121;-82
2021/05/24 03:05:51;;;;;;;2.33;2.15;;;3.40;99.90;;;;;;5077173;28;20056;-81
2021/05/24 03:08:18;;;;;;;3.17;2.08;;;3.40;99.90;;;;;;5073246;28;20080;-81
2021/05/24 03:10:45;;;;;;;2.42;2.22;;;3.40;99.90;;;;;;5072878;28;20087;-80
2021/05/24 03:13:11;;;;;;;2.25;2.08;;;3.40;99.90;;;;;;5072617;28;20512;-80
2021/05/24 03:15:38;;;;;;;5.90;1.90;;;3.40;99.90;;;;;;5072227;28;20041;-80
2021/05/24 03:18:05;;;;;;;3.28;2.08;;;3.40;99.90;;;;;;5074435;28;20049;-82
2021/05/24 03:20:32;;;;;;;10.43;2.42;;;3.40;99.90;;;;;;5078098;28;20049;-81
2021/05/24 03:22:59;;;;;;;2.40;2.22;;;3.40;99.90;;;;;;5078347;28;20056;-81
2021/05/24 03:25:25;;;;;;;2.63;1.88;;;3.40;99.90;;;;;;5078228;28;20131;-82
2021/05/24 03:27:52;;;;;;;1.98;1.80;;;3.40;99.90;;;;;;5076456;28;20106;-81
2021/05/24 03:30:19;;;;;;;2.03;1.92;;;3.40;99.90;;;;;;5077128;28;20095;-82
2021/05/24 03:32:46;;;;;;;6.68;2.30;;;3.40;99.90;;;;;;5076869;28;20457;-82
2021/05/24 03:35:13;;;;;;;2.45;2.00;;;3.40;99.90;;;;;;5076810;28;20079;-82
2021/05/24 03:37:40;;;;;;;1.75;1.65;;;3.40;99.90;;;;;;5076348;28;20048;-82
2021/05/24 03:40:09;;;;;;;2.90;2.65;;;3.40;99.90;;;;;;5074614;28;20049;-82
2021/05/24 03:42:36;;;;;;;3.03;2.53;;;3.40;99.90;;;;;;5074125;28;20088;-81
2021/05/24 03:45:08;;;;;;;4.57;3.40;;;3.40;99.90;;;;;;5075637;28;20084;-82
2021/05/24 03:47:36;;;;;;;2.67;2.47;;;3.40;99.90;;;;;;5074990;28;20044;-82
2021/05/24 03:50:05;;;;;;;5.57;2.78;;;3.40;99.90;;;;;;5074994;28;20060;-82
2021/05/24 03:52:31;;;;;;;2.50;2.40;;;3.40;99.90;;;;;;5073035;28;20512;-81
2021/05/24 03:54:58;;;;;;;3.05;2.85;;;3.50;99.90;;;;;;5076068;28;20079;-82
2021/05/24 03:57:25;;;;;;;3.05;2.80;;;3.50;99.90;;;;;;5074103;28;20040;-82
2021/05/24 03:59:52;;;;;;;2.35;2.15;;;3.60;99.90;;;;;;5074136;28;20090;-82
2021/05/24 04:02:19;;;;;;;4.25;3.80;;;3.60;99.90;;;;;;5074777;28;20045;-82
2021/05/24 04:04:47;;;;;;;5.72;2.58;;;3.60;99.90;;;;;;5074570;28;20063;-82
2021/05/24 04:07:20;;;;;;;2.58;2.47;;;3.70;99.90;;;;;;5076439;28;20044;-82
2021/05/24 04:09:48;;;;;;;4.60;2.50;;;3.70;99.90;;;;;;5076238;28;20055;-82
2021/05/24 04:12:15;;;;;;;3.42;3.22;;;3.80;99.90;;;;;;5077490;28;20190;-81
2021/05/24 04:14:43;;;;;;;3.15;2.30;;;3.90;99.90;;;;;;5077923;28;20114;-81
2021/05/24 04:17:12;;;;;;;2.05;1.95;;;3.90;99.90;;;;;;5077806;28;20041;-82
2021/05/24 04:19:41;;;;;;;2.28;2.00;;;4.00;99.90;;;;;;5077362;28;20550;-81
2021/05/24 04:22:09;;;;;;;2.30;2.10;;;4.00;99.90;;;;;;5077585;28;20087;-80
2021/05/24 04:24:37;;;;;;;2.30;2.20;;;4.10;99.90;;;;;;5075486;28;20049;-82
2021/05/24 04:27:05;;;;;;;2.78;2.20;;;4.10;99.90;;;;;;5076315;28;20064;-81
2021/05/24 04:29:31;;;;;;;2.10;1.70;;;4.20;99.90;;;;;;5077524;28;20048;-82
2021/05/24 04:31:58;;;;;;;3.90;2.22;;;4.30;99.90;;;;;;5077183;28;20099;-83
2021/05/24 04:34:25;;;;;;;2.17;1.80;;;4.30;99.90;;;;;;5076434;28;20049;-80
2021/05/24 04:36:52;;;;;;;2.95;2.03;;;4.40;99.90;;;;;;5075579;28;20083;-82
2021/05/24 04:39:18;;;;;;;3.63;1.98;;;4.50;99.90;;;;;;5075947;28;20128;-82
2021/05/24 04:41:45;;;;;;;2.67;2.47;;;4.50;99.90;;;;;;5077023;28;20052;-82
2021/05/24 04:44:19;;;;;;;2.60;2.40;;;4.70;99.90;;;;;;5075687;28;20127;-82
2021/05/24 04:46:49;;;;;;;2.00;1.90;;;4.80;99.90;;;;;;5075538;28;20463;-82
2021/05/24 04:49:16;;;;;;;3.15;1.77;;;5.00;99.90;;;;;;5077312;28;20048;-82
2021/05/24 04:51:43;;;;;;;2.47;1.52;;;5.10;99.90;;;;;;5077142;28;20084;-82
2021/05/24 04:54:10;;;;;;;1.92;1.80;;;5.30;99.90;;;;;;5077776;28;20070;-82
2021/05/24 04:56:37;;;;;;;2.40;1.38;;;5.30;99.90;;;;;;5075943;28;20048;-82
2021/05/24 04:59:04;;;;;;;2.55;1.48;;;5.40;99.90;;;;;;5077114;28;20505;-82
2021/05/24 05:01:32;;;;;;;1.63;1.23;;;5.40;99.90;;;;;;5073780;28;20127;-81
2021/05/24 05:03:58;;;;;;;3.10;1.20;;;5.40;99.90;;;;;;5074452;28;20453;-81
2021/05/24 05:06:25;;;;;;;2.55;1.30;;;5.50;99.90;;;;;;5076949;28;20053;-82
2021/05/24 05:08:52;;;;;;;3.92;1.33;;;5.70;99.90;;;;;;5080666;28;20105;-80
2021/05/24 05:11:19;;;;;;;2.25;1.25;;;6.10;99.90;;;;;;5079835;28;20562;-82
2021/05/24 05:13:46;;;;;;;2.70;1.05;;;6.60;99.90;;;;;;5078470;28;20044;-82
2021/05/24 05:16:13;;;;;;;5.72;1.08;;;7.10;99.90;;;;;;5079351;28;20080;-81
2021/05/24 05:18:39;;;;;;;1.35;0.90;;;7.60;99.90;;;;;;5078691;28;20539;-82
2021/05/24 05:21:06;;;;;;;2.30;0.95;;;8.00;99.90;;;;;;5085688;28;20056;-83
2021/05/24 05:23:38;;;;;;;0.65;0.50;;;8.60;99.90;;;;;;5080826;28;20053;-82
2021/05/24 05:26:05;;;;;;;1.17;0.57;;;9.40;99.90;;;;;;5078758;28;20052;-83
2021/05/24 05:28:32;;;;;;;0.45;0.45;;;10.10;99.90;;;;;;5078517;28;20127;-83
2021/05/24 05:30:58;;;;;;;0.77;0.57;;;10.40;99.90;;;;;;5078352;28;20460;-82
2021/05/24 05:33:26;;;;;;;3.13;0.90;;;10.30;99.90;;;;;;5076657;28;20486;-81
2021/05/24 05:35:56;;;;;;;1.85;0.60;;;10.80;99.90;;;;;;5078488;28;20048;-81
2021/05/24 05:38:23;;;;;;;1.73;0.60;;;10.80;99.90;;;;;;5077096;28;20102;-82
2021/05/24 05:40:52;;;;;;;3.13;1.38;;;10.60;99.90;;;;;;5077734;28;20055;-82
2021/05/24 05:43:19;;;;;;;1.70;0.73;;;10.50;99.90;;;;;;5078808;28;20052;-82
2021/05/24 05:45:47;;;;;;;1.15;0.68;;;10.40;99.90;;;;;;5077582;28;20092;-82
2021/05/24 05:48:14;;;;;;;1.70;0.88;;;10.30;99.90;;;;;;5078329;28;20113;-82
2021/05/24 05:50:41;;;;;;;1.50;0.60;;;10.50;99.90;;;;;;5078038;28;20555;-82
2021/05/24 05:53:10;;;;;;;1.70;0.55;;;10.60;99.90;;;;;;5077070;28;20535;-82
2021/05/24 05:55:37;;;;;;;0.85;0.82;;;10.60;99.90;;;;;;5078252;28;20048;-82
2021/05/24 05:58:04;;;;;;;0.90;0.60;;;10.80;99.90;;;;;;5077442;28;20070;-80
2021/05/24 06:00:31;;;;;;;0.70;0.70;;;10.80;99.90;;;;;;5078340;28;20145;-82
2021/05/24 06:02:57;;;;;;;1.48;1.10;;;10.70;99.90;;;;;;5077086;28;20084;-82
2021/05/24 06:05:24;;;;;;;1.42;0.90;;;11.10;99.90;;;;;;5078108;28;20048;-81
2021/05/24 06:07:51;;;;;;;6.75;1.67;;;11.40;99.90;;;;;;5077531;28;20474;-82
2021/05/24 06:10:18;;;;;;;1.23;1.00;;;11.60;99.90;;;;;;5078861;28;20086;-83
2021/05/24 06:12:47;;;;;;;1.55;0.93;;;12.40;99.90;;;;;;5078592;28;20126;-82
2021/05/24 06:15:17;;;;;;;4.25;0.80;;;13.30;99.90;;;;;;5077831;28;20084;-82
2021/05/24 06:17:45;;;;;;;2.72;0.70;;;13.20;99.90;;;;;;5078716;28;20087;-82
2021/05/24 06:20:12;;;;;;;1.52;0.73;;;13.50;99.90;;;;;;5079203;28;20048;-82
2021/05/24 06:22:39;;;;;;;2.45;0.70;;;13.60;99.90;;;;;;5078390;28;20098;-80
2021/05/24 06:25:10;;;;;;;1.55;0.68;;;14.70;99.90;;;;;;5078017;28;20083;-80
2021/05/24 06:27:37;;;;;;;2.58;0.82;;;15.20;99.90;;;;;;5079988;28;20053;-80
2021/05/24 06:30:07;;;;;;;1.15;0.75;;;15.60;99.90;;;;;;5079460;28;20076;-80
2021/05/24 06:32:34;;;;;;;3.60;0.80;;;15.50;99.90;;;;;;5078261;28;20121;-79
2021/05/24 06:35:02;;;;;;;2.17;0.80;;;16.50;99.90;;;;;;5075236;28;20132;-79
2021/05/24 06:37:29;;;;;;;2.38;0.60;;;17.30;99.90;;;;;;5073527;28;20044;-79
2021/05/24 06:39:56;;;;;;;3.33;0.55;;;17.20;99.90;;;;;;5075222;28;20070;-78
2021/05/24 06:42:24;;;;;;;1.85;0.65;;;17.20;99.90;;;;;;5076145;28;20061;-78
2021/05/24 06:44:54;;;;;;;3.30;0.82;;;17.50;99.90;;;;;;5075176;28;20048;-80
2021/05/24 06:47:23;;;;;;;1.17;0.65;;;17.30;99.90;;;;;;5075439;28;20127;-80
2021/05/24 06:49:50;;;;;;;7.13;1.05;;;17.00;99.90;;;;;;5073334;28;20045;-79
2021/05/24 06:52:17;;;;;;;5.25;1.00;;;17.00;99.90;;;;;;5072969;28;20128;-80
2021/05/24 06:54:44;;;;;;;5.88;1.10;;;16.90;99.90;;;;;;5074917;28;20120;-80
2021/05/24 06:57:11;;;;;;;4.07;1.27;;;16.90;99.90;;;;;;5078580;28;20044;-80
2021/05/24 06:59:38;;;;;;;4.50;1.00;;;17.00;99.90;;;;;;5077013;28;20052;-80
2021/05/24 07:02:05;;;;;;;11.13;1.80;;;18.40;99.90;;;;;;5076809;28;20056;-80
2021/05/24 07:04:32;;;;;;;12.15;1.33;;;19.20;99.90;;;;;;5076929;28;20052;-80
2021/05/24 07:06:59;;;;;;;6.47;1.15;;;19.40;99.90;;;;;;5077604;28;20131;-80
2021/05/24 07:09:26;;;;;;;3.95;1.13;;;20.00;99.90;;;;;;5076846;28;20486;-80
2021/05/24 07:11:53;;;;;;;10.40;1.13;;;20.70;99.80;;;;;;5075178;28;20078;-80
2021/05/24 07:14:20;;;;;;;6.90;1.30;;;20.80;98.00;;;;;;5074608;28;20049;-78
2021/05/24 07:16:47;;;;;;;7.00;1.20;;;21.20;95.40;;;;;;5074054;28;20593;-80
2021/05/24 07:19:14;;;;;;;4.22;1.40;;;20.80;94.70;;;;;;5075435;28;20080;-80
2021/05/24 07:21:40;;;;;;;2.05;1.00;;;20.10;97.80;;;;;;5074298;28;20246;-80
2021/05/24 07:24:08;;;;;;;4.15;1.05;;;20.00;99.90;;;;;;5073621;28;20048;-79
2021/05/24 07:26:55;;;;;;;1.20;0.30;;;19.80;99.90;;;;;;5073729;28;20390;-79
2021/05/24 07:29:21;;;;;;;0.32;0.10;;;20.00;91.70;;;;;;5075187;28;20154;-79
2021/05/24 07:31:48;;;;;;;0.73;0.22;;;20.30;91.70;;;;;;5074782;28;20477;-79
2021/05/24 07:34:15;;;;;;;1.45;0.20;;;20.90;87.90;;;;;;5074552;28;20259;-80
2021/05/24 07:36:41;;;;;;;1.38;0.20;;;21.40;84.70;;;;;;5074646;28;20159;-79
2021/05/24 07:39:08;;;;;;;0.30;0.30;;;21.20;83.10;;;;;;5074372;28;20509;-78
2021/05/24 07:41:38;;;;;;;0.10;0.10;;;20.70;86.90;;;;;;5074597;28;20084;-80
2021/05/24 07:44:05;;;;;;;0.75;0.13;;;20.70;82.60;;;;;;5078368;28;20052;-80
2021/05/24 07:46:33;;;;;;;0.30;0.25;;;20.70;81.80;;;;;;5077545;28;20498;-80
2021/05/24 07:49:00;;;;;;;0.28;0.25;;;20.70;84.50;;;;;;5079277;28;20102;-81
2021/05/24 07:51:27;;;;;;;0.35;0.28;;;21.00;78.40;;;;;;5078081;28;20046;-80
2021/05/24 07:53:53;;;;;;;0.57;0.20;;;20.90;77.70;;;;;;5078411;28;20055;-80
2021/05/24 07:56:20;;;;;;;0.35;0.10;;;20.90;76.30;;;;;;5075951;28;20127;-78
2021/05/24 07:58:47;;;;;;;0.65;0.30;;;21.40;78.10;;;;;;5075514;28;20351;-79
2021/05/24 08:01:14;;;;;;;0.28;0.20;;;21.80;74.90;;;;;;5075455;28;20076;-78
2021/05/24 08:03:41;;;;;;;0.20;0.20;;;22.40;73.70;;;;;;5076542;28;20057;-79
2021/05/24 08:06:08;;;;;;;0.55;0.40;;;22.70;68.40;;;;;;5076400;28;20048;-79
2021/05/24 08:08:35;;;;;;;1.38;0.30;;;22.00;69.50;;;;;;5076461;28;20044;-80
2021/05/24 08:11:02;;;;;;;1.92;0.17;;;22.60;70.80;;;;;;5077108;28;20094;-79
2021/05/24 08:13:29;;;;;;;0.45;0.20;;;22.90;66.40;;;;;;5074950;28;20508;-77
2021/05/24 08:15:56;;;;;;;1.58;0.20;;;23.00;65.40;;;;;;5076529;28;20101;-79
2021/05/24 08:18:23;;;;;;;1.70;0.25;;;22.40;63.70;;;;;;5076382;28;20508;-79
2021/05/24 08:20:50;;;;;;;0.80;0.55;;;21.50;67.10;;;;;;5076688;28;20045;-80
2021/05/24 08:23:18;;;;;;;0.30;0.25;;;21.60;68.10;;;;;;5075247;28;20052;-78
2021/05/24 08:25:45;;;;;;;2.47;0.20;;;21.80;67.50;;;;;;5075224;28;20568;-79
2021/05/24 08:28:11;;;;;;;2.65;0.50;;;21.80;69.30;;;;;;5076240;28;20080;-79
2021/05/24 08:30:38;;;;;;;2.15;0.77;;;22.30;63.70;;;;;;5076756;28;20171;-80
2021/05/24 08:33:05;;;;;;;2.00;0.80;;;23.60;63.10;;;;;;5076118;28;20147;-79
2021/05/24 08:35:32;;;;;;;0.30;0.20;;;25.60;59.60;;;;;;5077150;28;20068;-78
2021/05/24 08:37:59;;;;;;;0.65;0.20;;;25.50;56.60;;;;;;5077063;28;20140;-80
2021/05/24 08:40:26;;;;;;;3.47;2.13;;;26.90;54.30;;;;;;5076638;28;20477;-80
2021/05/24 08:42:58;;;;;;;4.30;2.72;;;28.90;52.30;;;;;;5080908;28;20055;-80
2021/05/24 08:45:30;;;;;;;0.20;0.20;;;28.00;49.90;;;;;;5080168;28;20421;-81
2021/05/24 08:47:57;;;;;;;1.10;0.73;;;29.30;50.80;;;;;;5081370;28;20044;-79
2021/05/24 08:50:24;;;;;;;1.55;0.20;;;30.20;50.10;;;;;;5078065;28;20052;-80
2021/05/24 08:52:51;;;;;;;1.80;0.30;;;32.40;45.00;;;;;;5078269;28;20075;-80
2021/05/24 08:55:17;;;;;;;11.40;1.20;;;32.70;42.30;;;;;;5079174;28;20072;-79
2021/05/24 08:57:44;;;;;;;7.50;5.22;;;29.00;43.80;;;;;;5077594;28;20052;-81
2021/05/24 09:00:15;;;;;;;10.38;7.55;;;26.20;45.30;;;;;;5078374;28;20066;-80
2021/05/24 09:03:00;;;;;;;4.03;1.27;;;26.60;48.10;;;;;;5076507;28;20522;-80
2021/05/24 09:05:30;;;;;;;2.65;0.68;;;26.60;46.80;;;;;;5077870;28;20109;-81
2021/05/24 09:08:03;;;;;;;4.10;0.60;;;29.00;45.80;;;;;;5077479;28;20070;-80
2021/05/24 09:10:31;;;;;;;0.95;0.47;;;31.30;45.90;;;;;;5077645;28;20135;-80
2021/05/24 09:12:57;;;;;;;1.73;0.50;;;31.40;43.70;;;;;;5076903;28;20453;-78
2021/05/24 09:15:26;;;;;;;3.20;1.02;;;30.10;43.60;;;;;;5076989;28;20096;-78
2021/05/24 09:17:55;;;;;;;4.30;0.98;;;28.90;44.00;;;;;;5075745;28;20048;-77
2021/05/24 09:20:29;;;;;;;1.02;0.47;;;27.90;44.30;;;;;;5076411;28;20091;-79
2021/05/24 09:23:29;;;;;;;3.70;0.50;;;27.10;43.60;;;;;;5075279;28;20132;-80
2021/05/24 09:26:06;;;;;;;2.17;0.25;;;26.60;46.90;;;;;;5075188;28;20425;-79
2021/05/24 09:28:49;;;;;;;12.75;3.67;;;27.20;48.10;;;;;;5076865;28;20098;-80
2021/05/24 09:31:24;;;;;;;0.30;0.10;;;27.90;44.40;;;;;;5075761;28;20080;-80
2021/05/24 09:34:00;;;;;;;3.47;0.30;;;28.50;42.60;;;;;;5075463;28;20041;-79
2021/05/24 09:36:28;;;;;;;0.57;0.20;;;28.80;42.70;;;;;;5076645;28;20090;-80
2021/05/24 09:39:04;;;;;;;0.57;0.20;;;28.70;41.30;;;;;;5075153;28;20076;-80
2021/05/24 09:41:43;;;;;;;0.60;0.20;;;29.90;42.90;;;;;;5076751;28;20124;-80
2021/05/24 09:44:26;;;;;;;0.57;0.20;;;30.60;40.80;;;;;;5075769;28;20076;-80
2021/05/24 09:46:53;;;;;;;1.15;0.28;;;31.40;41.60;;;;;;5076532;28;20080;-80
2021/05/24 09:49:24;;;;;;;0.60;0.15;;;33.20;41.80;;;;;;5077725;28;20536;-77
2021/05/24 09:51:52;;;;;;;0.52;0.17;;;33.50;38.10;;;;;;5076447;28;20044;-77
2021/05/24 09:54:22;;;;;;;0.50;0.17;;;33.80;37.70;;;;;;5075231;28;20088;-80
2021/05/24 09:56:49;;;;;;;0.40;0.10;;;33.10;37.40;;;;;;5077759;28;20045;-80
2021/05/24 09:59:21;;;;;;;0.10;0.00;;;31.30;37.50;;;;;;5080027;28;20055;-79
2021/05/24 10:01:53;;;;;;;4.72;1.10;;;30.30;38.50;;;;;;5078429;28;20049;-78
2021/05/24 10:04:22;;;;;;;0.03;0.03;;;29.60;40.70;;;;;;5077216;28;20048;-78
2021/05/24 10:06:50;;;;;;;2.65;0.40;;;30.60;40.00;;;;;;5077481;28;20059;-80
2021/05/24 10:09:18;;;;;;;0.57;0.22;;;32.60;39.80;;;;;;5078219;28;20487;-80
2021/05/24 10:11:49;;;;;;;1.85;0.25;;;32.50;40.30;;;;;;5076022;28;20049;-77
2021/05/24 10:14:24;;;;;;;10.60;2.28;;;33.60;37.40;;;;;;5076708;28;20112;-81
2021/05/24 10:16:56;;;;;;;0.93;0.30;;;34.00;36.40;;;;;;5077072;28;20512;-80
2021/05/24 10:19:25;;;;;;;3.45;1.45;;;34.20;36.40;;;;;;5076206;28;20424;-81
2021/05/24 10:21:52;;;;;;;1.48;0.40;;;33.60;35.60;;;;;;5077269;28;20501;-80
2021/05/24 10:24:24;;;;;;;0.15;0.10;;;32.30;36.80;;;;;;5075950;28;20459;-80
2021/05/24 10:26:58;;;;;;;0.50;0.15;;;32.60;36.60;;;;;;5078075;28;20063;-80
2021/05/24 10:29:26;;;;;;;0.15;0.15;;;32.40;36.20;;;;;;5079025;28;20040;-82
2021/05/24 10:31:53;;;;;;;0.98;0.20;;;31.60;36.00;;;;;;5080693;28;20044;-86
2021/05/24 10:34:24;;;;;;;0.63;0.10;;;30.70;37.10;;;;;;5081941;28;20051;-77
2021/05/24 10:37:12;;;;;;;2.38;0.40;;;30.00;37.70;;;;;;5078733;28;20044;-80
2021/05/24 10:39:46;;;;;;;0.30;0.20;;;30.10;40.00;;;;;;5079338;28;20122;-80
2021/05/24 10:42:14;;;;;;;7.78;2.47;;;30.20;37.90;;;;;;5078661;28;20052;-81
2021/05/24 10:44:45;;;;;;;2.42;0.45;;;27.80;38.20;;;;;;5077722;28;20509;-80
2021/05/24 10:47:22;;;;;;;0.35;0.35;;;27.00;41.60;;;;;;5076591;28;20053;-80
2021/05/24 10:50:08;;;;;;;2.30;0.50;;;27.70;42.50;;;;;;5078078;28;20091;-81
2021/05/24 10:52:39;;;;;;;4.20;1.10;;;27.80;39.50;;;;;;5078231;28;20041;-81
2021/05/24 10:55:25;;;;;;;0.57;0.38;;;27.00;40.40;;;;;;5077809;28;20052;-81
2021/05/24 10:58:02;;;;;;;3.20;0.35;;;28.30;40.80;;;;;;5077996;28;20474;-80
2021/05/24 11:00:48;;;;;;;1.27;0.52;;;28.30;38.60;;;;;;5077270;28;20132;-80
2021/05/24 11:03:16;;;;;;;1.20;0.10;;;28.40;39.50;;;;;;5076000;28;20048;-80
2021/05/24 11:05:47;;;;;;;0.77;0.10;;;28.10;40.70;;;;;;5076410;28;20111;-80
2021/05/24 11:08:25;;;;;;;0.43;0.10;;;28.10;39.80;;;;;;5076037;28;20122;-80
2021/05/24 11:10:53;;;;;;;0.20;0.10;;;28.10;38.90;;;;;;5075125;28;20103;-79
2021/05/24 11:13:21;;;;;;;1.13;0.10;;;28.00;39.10;;;;;;5075624;28;20068;-80
2021/05/24 11:15:49;;;;;;;0.20;0.10;;;27.80;38.00;;;;;;5077345;28;20470;-80
2021/05/24 11:18:21;;;;;;;0.20;0.00;;;27.50;39.80;;;;;;5079481;28;20133;-78
2021/05/24 11:21:01;;;;;;;0.20;0.15;;;27.70;39.40;;;;;;5077777;28;20458;-80
2021/05/24 11:26:11;;;;;;;1.75;0.40;;;27.30;41.10;;;;;;5078544;28;20109;-81
2021/05/24 11:28:48;;;;;;;0.30;0.10;;;27.60;40.00;;;;;;5078828;28;20084;-81
2021/05/24 11:31:23;;;;;;;2.33;0.15;;;27.00;38.50;;;;;;5078874;28;20476;-81
2021/05/24 11:33:55;;;;;;;7.80;0.30;;;26.90;40.60;;;;;;5078683;28;20091;-82
2021/05/24 11:36:27;;;;;;;2.53;0.43;;;25.90;39.70;;;;;;5079573;28;20191;-81
2021/05/24 11:39:06;;;;;;;6.25;1.60;;;25.10;41.60;;;;;;5078806;28;20515;-80
2021/05/24 11:41:44;;;;;;;2.50;0.10;;;24.70;43.20;;;;;;5078096;28;20072;-80
2021/05/24 11:44:11;;;;;;;3.33;0.65;;;25.40;42.20;;;;;;5076950;28;20091;-81
2021/05/24 11:46:47;;;;;;;0.98;0.30;;;24.80;42.40;;;;;;5077759;28;20554;-81
2021/05/24 11:49:15;;;;;;;1.23;0.40;;;24.70;41.90;;;;;;5076598;28;20050;-81
2021/05/24 11:51:44;;;;;;;4.32;0.85;;;24.20;42.50;;;;;;5077337;28;20084;-81
2021/05/24 11:54:20;;;;;;;14.38;6.65;;;24.00;41.80;;;;;;5076525;28;20222;-79
2021/05/24 11:56:56;;;;;;;0.17;0.17;;;23.70;44.00;;;;;;5077786;28;20091;-81
2021/05/24 11:59:25;;;;;;;4.57;0.70;;;23.90;43.10;;;;;;5077750;28;20395;-80
2021/05/24 12:01:53;;;;;;;2.25;0.38;;;24.00;44.10;;;;;;5075568;28;20417;-80
2021/05/24 12:04:28;;;;;;;1.70;0.20;;;24.40;43.70;;;;;;5077347;28;20041;-78
2021/05/24 12:07:00;;;;;;;0.30;0.20;;;24.80;43.80;;;;;;5076282;28;20076;-80
2021/05/24 12:09:53;;;;;;;0.85;0.30;;;23.80;43.20;;;;;;5077681;28;20400;-81
2021/05/24 12:12:35;;;;;;;1.10;0.90;;;23.90;44.00;;;;;;5078150;28;20045;-79
2021/05/24 12:15:06;;;;;;;0.10;0.10;;;23.60;44.80;;;;;;5078291;28;20051;-79
2021/05/24 12:17:34;;;;;;;3.65;0.82;;;23.90;43.70;;;;;;5075522;28;20177;-81
2021/05/24 12:20:05;;;;;;;1.92;0.40;;;23.70;43.60;;;;;;5077297;28;20131;-80
2021/05/24 12:22:35;;;;;;;0.40;0.40;;;23.80;45.20;;;;;;5079361;28;20098;-80
2021/05/24 12:25:03;;;;;;;2.58;0.40;;;24.10;43.60;;;;;;5083538;28;20056;-80
2021/05/24 12:27:29;;;;;;;1.20;0.30;;;24.00;43.50;;;;;;5079488;28;20051;-80
2021/05/24 12:30:22;;;;;;;1.38;0.10;;;23.90;45.10;;;;;;5078493;28;20194;-80
2021/05/24 12:32:54;;;;;;;0.70;0.32;;;24.00;42.80;;;;;;5079113;28;20084;-80
2021/05/24 12:35:26;;;;;;;0.10;0.10;;;24.50;44.80;;;;;;5078650;28;20044;-80
2021/05/24 12:40:49;;;;;;;4.97;0.98;;;23.10;42.50;;;;;;5078965;28;20048;-80
2021/05/24 12:43:16;;;;;;;7.38;1.80;;;23.40;45.70;;;;;;5078737;28;20094;-80
2021/05/24 12:45:46;;;;;;;1.13;0.40;;;23.60;44.00;;;;;;5076333;28;20058;-80
2021/05/24 12:48:15;;;;;;;0.82;0.20;;;23.60;45.40;;;;;;5077804;28;20080;-79
2021/05/24 12:50:46;;;;;;;0.80;0.77;;;23.50;43.90;;;;;;5077137;28;20058;-80
2021/05/24 12:53:15;;;;;;;0.57;0.30;;;23.60;44.20;;;;;;5076045;28;20505;-80
2021/05/24 12:55:43;;;;;;;0.75;0.35;;;23.80;45.00;;;;;;5076741;28;20048;-80
2021/05/24 12:58:11;;;;;;;1.75;0.30;;;24.20;46.60;;;;;;5077238;28;20496;-80
2021/05/24 13:00:43;;;;;;;0.65;0.20;;;24.40;45.00;;;;;;5075820;28;20139;-80
2021/05/24 13:03:10;;;;;;;3.00;1.30;;;24.40;44.20;;;;;;5076736;28;20048;-80
2021/05/24 13:05:37;;;;;;;0.15;0.13;;;24.30;45.80;;;;;;5076604;28;20140;-80